Main page
METAR-TAF:

METAR-TAF

Airports :

Sheremetyevo International Airport

Moscow-Sheremetyevo, Russia

latitude: 55-58N, longitude: 037-25E, elevation: 190 m

Current weather observation

The report was made 20 minutes ago, at 05:30 UTC
Wind 12 kt from the East/Northeast
Temperature 24°C
Humidity 78%
Pressure 1008 hPa
Visibility 10 km or more
no clouds below 1500 m and no cumulonimbus

METAR: UUEE 170530Z 06006MPS CAVOK 24/20 Q1008 R06C/CLRD62 R06R/CLRD62 NOSIG

Time: 08:50 (05:50 UTC)

Forecast

The report was made 50 minutes ago, at 05:00 UTC
Forecast valid from 17 at 06 UTC to 18 at 06 UTC
Wind 14 kt from the Northeast
Visibility 10 km or more
Broken clouds at a height of 2500 ft

TAF: UUEE 170500Z 1706/1806 05007MPS 9999 BKN025 TX29/1712Z TN19/1802Z

Weather observations and forecasts of more than 4000 airports (METAR and TAF reports).

The available stations are represented by yellow and red dots on the map.

Hover mouse over dot to see the name of the station.

Then click to see weather observations and forecasts.

To change the map : click on the green buttons with a black cross to zoom in, on the green button with a dash to zoom out, or on the green arrows for adjacent maps.


METAR-TAF: